sensor_id;sensor_type;location;lat;lon;timestamp;P1;durP1;ratioP1;P2;durP2;ratioP2
56599;SDS011;51832;48.152;11.530;2022-11-25T00:02:30;4.75;;;3.00;;
56599;SDS011;51832;48.152;11.530;2022-11-25T00:07:33;4.63;;;2.57;;
56599;SDS011;51832;48.152;11.530;2022-11-25T00:12:34;5.88;;;2.83;;
56599;SDS011;51832;48.152;11.530;2022-11-25T00:17:35;5.05;;;2.60;;
56599;SDS011;51832;48.152;11.530;2022-11-25T00:22:35;5.13;;;2.33;;
56599;SDS011;51832;48.152;11.530;2022-11-25T00:27:36;4.18;;;2.58;;
56599;SDS011;51832;48.152;11.530;2022-11-25T00:32:36;2.85;;;2.00;;
56599;SDS011;51832;48.152;11.530;2022-11-25T00:37:37;5.35;;;2.25;;
56599;SDS011;51832;48.152;11.530;2022-11-25T00:42:37;2.72;;;2.03;;
56599;SDS011;51832;48.152;11.530;2022-11-25T00:47:56;2.78;;;2.13;;
56599;SDS011;51832;48.152;11.530;2022-11-25T00:52:56;6.70;;;2.67;;
56599;SDS011;51832;48.152;11.530;2022-11-25T00:57:58;4.30;;;2.00;;
56599;SDS011;51832;48.152;11.530;2022-11-25T01:02:58;3.50;;;2.00;;
56599;SDS011;51832;48.152;11.530;2022-11-25T01:07:58;5.85;;;2.58;;
56599;SDS011;51832;48.152;11.530;2022-11-25T01:12:59;4.50;;;2.20;;
56599;SDS011;51832;48.152;11.530;2022-11-25T01:17:59;3.53;;;2.10;;
56599;SDS011;51832;48.152;11.530;2022-11-25T01:22:59;3.05;;;1.85;;
56599;SDS011;51832;48.152;11.530;2022-11-25T01:28:00;2.45;;;1.70;;
56599;SDS011;51832;48.152;11.530;2022-11-25T01:33:00;3.85;;;1.98;;
56599;SDS011;51832;48.152;11.530;2022-11-25T01:38:00;6.23;;;2.40;;
56599;SDS011;51832;48.152;11.530;2022-11-25T01:43:01;2.37;;;1.90;;
56599;SDS011;51832;48.152;11.530;2022-11-25T01:48:03;3.22;;;1.85;;
56599;SDS011;51832;48.152;11.530;2022-11-25T01:53:25;2.50;;;2.10;;
56599;SDS011;51832;48.152;11.530;2022-11-25T01:58:27;3.42;;;1.80;;
56599;SDS011;51832;48.152;11.530;2022-11-25T02:03:36;3.55;;;2.17;;
56599;SDS011;51832;48.152;11.530;2022-11-25T02:08:41;1.67;;;1.48;;
56599;SDS011;51832;48.152;11.530;2022-11-25T02:13:46;3.38;;;1.90;;
56599;SDS011;51832;48.152;11.530;2022-11-25T02:23:58;1.60;;;1.40;;
56599;SDS011;51832;48.152;11.530;2022-11-25T02:29:07;2.88;;;1.83;;
56599;SDS011;51832;48.152;11.530;2022-11-25T02:34:08;2.03;;;1.58;;
56599;SDS011;51832;48.152;11.530;2022-11-25T02:39:09;1.95;;;1.40;;
56599;SDS011;51832;48.152;11.530;2022-11-25T02:44:11;2.22;;;1.60;;
56599;SDS011;51832;48.152;11.530;2022-11-25T02:49:11;2.38;;;1.50;;
56599;SDS011;51832;48.152;11.530;2022-11-25T02:54:12;2.20;;;1.77;;
56599;SDS011;51832;48.152;11.530;2022-11-25T02:59:14;1.35;;;1.20;;
56599;SDS011;51832;48.152;11.530;2022-11-25T03:04:15;2.63;;;1.50;;
56599;SDS011;51832;48.152;11.530;2022-11-25T03:09:15;1.90;;;1.58;;
56599;SDS011;51832;48.152;11.530;2022-11-25T03:14:15;2.00;;;1.20;;
56599;SDS011;51832;48.152;11.530;2022-11-25T03:19:16;2.35;;;1.60;;
56599;SDS011;51832;48.152;11.530;2022-11-25T03:24:16;2.70;;;1.52;;
56599;SDS011;51832;48.152;11.530;2022-11-25T03:29:17;2.40;;;1.67;;
56599;SDS011;51832;48.152;11.530;2022-11-25T03:34:17;1.80;;;1.50;;
56599;SDS011;51832;48.152;11.530;2022-11-25T03:39:17;2.90;;;1.40;;
56599;SDS011;51832;48.152;11.530;2022-11-25T03:44:18;2.88;;;1.80;;
56599;SDS011;51832;48.152;11.530;2022-11-25T03:49:18;2.05;;;1.50;;
56599;SDS011;51832;48.152;11.530;2022-11-25T03:54:20;2.67;;;1.52;;
56599;SDS011;51832;48.152;11.530;2022-11-25T03:59:21;1.40;;;1.30;;
56599;SDS011;51832;48.152;11.530;2022-11-25T04:04:22;2.67;;;1.75;;
56599;SDS011;51832;48.152;11.530;2022-11-25T04:09:23;2.55;;;1.92;;
56599;SDS011;51832;48.152;11.530;2022-11-25T04:14:24;2.25;;;1.67;;
56599;SDS011;51832;48.152;11.530;2022-11-25T04:19:25;2.80;;;1.60;;
56599;SDS011;51832;48.152;11.530;2022-11-25T04:24:25;2.33;;;1.65;;
56599;SDS011;51832;48.152;11.530;2022-11-25T04:29:26;2.25;;;1.60;;
56599;SDS011;51832;48.152;11.530;2022-11-25T04:34:27;3.22;;;1.63;;
56599;SDS011;51832;48.152;11.530;2022-11-25T04:39:27;3.33;;;1.98;;
56599;SDS011;51832;48.152;11.530;2022-11-25T04:44:28;2.47;;;1.58;;
56599;SDS011;51832;48.152;11.530;2022-11-25T04:49:28;2.70;;;1.85;;
56599;SDS011;51832;48.152;11.530;2022-11-25T04:54:29;2.95;;;1.85;;
56599;SDS011;51832;48.152;11.530;2022-11-25T04:59:29;3.65;;;1.92;;
56599;SDS011;51832;48.152;11.530;2022-11-25T05:04:39;1.75;;;1.42;;
56599;SDS011;51832;48.152;11.530;2022-11-25T05:09:40;2.00;;;1.40;;
56599;SDS011;51832;48.152;11.530;2022-11-25T05:14:40;1.73;;;1.40;;
56599;SDS011;51832;48.152;11.530;2022-11-25T05:19:41;1.48;;;1.23;;
56599;SDS011;51832;48.152;11.530;2022-11-25T05:24:42;2.70;;;1.60;;
56599;SDS011;51832;48.152;11.530;2022-11-25T05:29:43;3.97;;;2.05;;
56599;SDS011;51832;48.152;11.530;2022-11-25T05:34:44;2.47;;;2.05;;
56599;SDS011;51832;48.152;11.530;2022-11-25T05:39:44;3.10;;;1.85;;
56599;SDS011;51832;48.152;11.530;2022-11-25T05:44:45;4.72;;;2.42;;
56599;SDS011;51832;48.152;11.530;2022-11-25T05:49:45;1.98;;;1.50;;
56599;SDS011;51832;48.152;11.530;2022-11-25T05:54:46;3.38;;;1.40;;
56599;SDS011;51832;48.152;11.530;2022-11-25T05:59:46;1.80;;;1.42;;
56599;SDS011;51832;48.152;11.530;2022-11-25T06:04:47;2.42;;;1.30;;
56599;SDS011;51832;48.152;11.530;2022-11-25T06:09:47;2.80;;;1.67;;
56599;SDS011;51832;48.152;11.530;2022-11-25T06:14:49;2.75;;;1.50;;
56599;SDS011;51832;48.152;11.530;2022-11-25T06:19:50;3.70;;;1.88;;
56599;SDS011;51832;48.152;11.530;2022-11-25T06:24:50;1.85;;;1.60;;
56599;SDS011;51832;48.152;11.530;2022-11-25T06:29:51;3.15;;;1.60;;
56599;SDS011;51832;48.152;11.530;2022-11-25T06:34:52;3.10;;;1.80;;
56599;SDS011;51832;48.152;11.530;2022-11-25T06:39:52;3.42;;;2.00;;
56599;SDS011;51832;48.152;11.530;2022-11-25T06:44:53;3.15;;;1.67;;
56599;SDS011;51832;48.152;11.530;2022-11-25T06:49:54;2.72;;;1.40;;
56599;SDS011;51832;48.152;11.530;2022-11-25T06:54:54;2.03;;;1.58;;
56599;SDS011;51832;48.152;11.530;2022-11-25T06:59:55;3.42;;;1.55;;
56599;SDS011;51832;48.152;11.530;2022-11-25T07:04:55;4.00;;;1.90;;
56599;SDS011;51832;48.152;11.530;2022-11-25T07:09:56;3.05;;;1.50;;
56599;SDS011;51832;48.152;11.530;2022-11-25T07:14:56;3.55;;;1.50;;
56599;SDS011;51832;48.152;11.530;2022-11-25T07:19:57;4.25;;;1.90;;
56599;SDS011;51832;48.152;11.530;2022-11-25T07:24:57;2.35;;;1.80;;
56599;SDS011;51832;48.152;11.530;2022-11-25T07:29:58;3.42;;;1.77;;
56599;SDS011;51832;48.152;11.530;2022-11-25T07:34:59;4.18;;;2.10;;
56599;SDS011;51832;48.152;11.530;2022-11-25T07:39:59;4.47;;;2.05;;
56599;SDS011;51832;48.152;11.530;2022-11-25T07:45:00;2.80;;;1.60;;
56599;SDS011;51832;48.152;11.530;2022-11-25T07:50:00;2.15;;;1.50;;
56599;SDS011;51832;48.152;11.530;2022-11-25T07:55:01;3.20;;;1.30;;
56599;SDS011;51832;48.152;11.530;2022-11-25T08:00:02;1.63;;;1.17;;
56599;SDS011;51832;48.152;11.530;2022-11-25T08:05:04;1.65;;;1.05;;
56599;SDS011;51832;48.152;11.530;2022-11-25T08:10:05;2.67;;;1.30;;
56599;SDS011;51832;48.152;11.530;2022-11-25T08:15:06;3.17;;;1.20;;
56599;SDS011;51832;48.152;11.530;2022-11-25T08:20:07;2.35;;;1.30;;
56599;SDS011;51832;48.152;11.530;2022-11-25T08:25:08;2.17;;;1.38;;
56599;SDS011;51832;48.152;11.530;2022-11-25T08:30:09;4.97;;;1.80;;
56599;SDS011;51832;48.152;11.530;2022-11-25T08:35:09;3.85;;;1.90;;
56599;SDS011;51832;48.152;11.530;2022-11-25T08:40:11;2.75;;;2.10;;
56599;SDS011;51832;48.152;11.530;2022-11-25T08:45:12;4.78;;;2.40;;
56599;SDS011;51832;48.152;11.530;2022-11-25T08:50:13;3.47;;;2.30;;
56599;SDS011;51832;48.152;11.530;2022-11-25T08:55:14;2.75;;;1.90;;
56599;SDS011;51832;48.152;11.530;2022-11-25T09:00:14;2.88;;;2.05;;
56599;SDS011;51832;48.152;11.530;2022-11-25T09:05:16;4.32;;;2.00;;
56599;SDS011;51832;48.152;11.530;2022-11-25T09:10:16;3.75;;;1.90;;
56599;SDS011;51832;48.152;11.530;2022-11-25T09:15:17;2.28;;;1.45;;
56599;SDS011;51832;48.152;11.530;2022-11-25T09:20:17;3.25;;;1.70;;
56599;SDS011;51832;48.152;11.530;2022-11-25T09:25:19;3.05;;;2.00;;
56599;SDS011;51832;48.152;11.530;2022-11-25T09:30:20;2.65;;;1.70;;
56599;SDS011;51832;48.152;11.530;2022-11-25T09:35:21;2.83;;;1.55;;
56599;SDS011;51832;48.152;11.530;2022-11-25T09:51:17;1.92;;;1.58;;
56599;SDS011;51832;48.152;11.530;2022-11-25T10:01:34;4.00;;;2.13;;
56599;SDS011;51832;48.152;11.530;2022-11-25T10:06:57;3.33;;;2.00;;
56599;SDS011;51832;48.152;11.530;2022-11-25T10:22:56;4.00;;;1.95;;
56599;SDS011;51832;48.152;11.530;2022-11-25T10:43:40;1.92;;;1.10;;
56599;SDS011;51832;48.152;11.530;2022-11-25T10:54:24;3.03;;;1.38;;
56599;SDS011;51832;48.152;11.530;2022-11-25T11:04:29;2.78;;;1.42;;
56599;SDS011;51832;48.152;11.530;2022-11-25T11:09:31;2.13;;;1.10;;
56599;SDS011;51832;48.152;11.530;2022-11-25T11:14:36;3.80;;;1.20;;
56599;SDS011;51832;48.152;11.530;2022-11-25T11:19:37;1.52;;;1.15;;
56599;SDS011;51832;48.152;11.530;2022-11-25T11:24:37;1.90;;;1.00;;
56599;SDS011;51832;48.152;11.530;2022-11-25T11:29:38;1.80;;;1.10;;
56599;SDS011;51832;48.152;11.530;2022-11-25T11:56:14;2.95;;;1.30;;
56599;SDS011;51832;48.152;11.530;2022-11-25T12:06:57;4.10;;;1.30;;
56599;SDS011;51832;48.152;11.530;2022-11-25T12:12:04;2.35;;;1.10;;
56599;SDS011;51832;48.152;11.530;2022-11-25T12:17:29;3.30;;;1.38;;
56599;SDS011;51832;48.152;11.530;2022-11-25T12:27:49;1.15;;;1.00;;
56599;SDS011;51832;48.152;11.530;2022-11-25T12:33:00;3.15;;;1.42;;
56599;SDS011;51832;48.152;11.530;2022-11-25T13:10:28;2.63;;;1.13;;
56599;SDS011;51832;48.152;11.530;2022-11-25T13:15:41;2.92;;;1.08;;
56599;SDS011;51832;48.152;11.530;2022-11-25T13:20:45;1.48;;;0.93;;
56599;SDS011;51832;48.152;11.530;2022-11-25T13:25:47;3.20;;;1.00;;
56599;SDS011;51832;48.152;11.530;2022-11-25T13:30:49;3.50;;;1.08;;
56599;SDS011;51832;48.152;11.530;2022-11-25T13:35:52;2.63;;;1.23;;
56599;SDS011;51832;48.152;11.530;2022-11-25T13:40:57;2.25;;;1.00;;
56599;SDS011;51832;48.152;11.530;2022-11-25T13:46:02;2.60;;;1.08;;
56599;SDS011;51832;48.152;11.530;2022-11-25T13:51:24;1.80;;;0.95;;
56599;SDS011;51832;48.152;11.530;2022-11-25T14:01:26;3.27;;;1.30;;
56599;SDS011;51832;48.152;11.530;2022-11-25T14:28:32;2.63;;;1.30;;
56599;SDS011;51832;48.152;11.530;2022-11-25T14:38:49;2.42;;;1.15;;
56599;SDS011;51832;48.152;11.530;2022-11-25T14:43:56;3.35;;;1.25;;
56599;SDS011;51832;48.152;11.530;2022-11-25T14:49:03;5.22;;;1.17;;
56599;SDS011;51832;48.152;11.530;2022-11-25T14:54:07;4.03;;;1.27;;
56599;SDS011;51832;48.152;11.530;2022-11-25T14:59:09;3.80;;;1.55;;
56599;SDS011;51832;48.152;11.530;2022-11-25T15:04:17;3.63;;;1.38;;
56599;SDS011;51832;48.152;11.530;2022-11-25T15:14:28;3.55;;;1.30;;
56599;SDS011;51832;48.152;11.530;2022-11-25T15:24:45;5.05;;;1.95;;
56599;SDS011;51832;48.152;11.530;2022-11-25T15:29:46;5.28;;;1.88;;
56599;SDS011;51832;48.152;11.530;2022-11-25T15:34:47;2.22;;;1.58;;
56599;SDS011;51832;48.152;11.530;2022-11-25T15:39:49;4.80;;;1.77;;
56599;SDS011;51832;48.152;11.530;2022-11-25T15:45:10;5.80;;;1.98;;
56599;SDS011;51832;48.152;11.530;2022-11-25T15:50:21;6.35;;;1.88;;
56599;SDS011;51832;48.152;11.530;2022-11-25T15:55:34;3.90;;;1.90;;
56599;SDS011;51832;48.152;11.530;2022-11-25T16:00:37;4.45;;;2.13;;
56599;SDS011;51832;48.152;11.530;2022-11-25T16:05:50;8.25;;;2.67;;
56599;SDS011;51832;48.152;11.530;2022-11-25T16:10:55;4.65;;;2.00;;
56599;SDS011;51832;48.152;11.530;2022-11-25T16:15:59;5.13;;;2.70;;
56599;SDS011;51832;48.152;11.530;2022-11-25T16:21:09;5.10;;;2.47;;
56599;SDS011;51832;48.152;11.530;2022-11-25T16:31:14;4.10;;;1.98;;
56599;SDS011;51832;48.152;11.530;2022-11-25T16:36:18;2.50;;;1.80;;
56599;SDS011;51832;48.152;11.530;2022-11-25T16:41:20;6.55;;;2.65;;
56599;SDS011;51832;48.152;11.530;2022-11-25T16:46:24;4.18;;;2.25;;
56599;SDS011;51832;48.152;11.530;2022-11-25T16:51:24;7.85;;;2.67;;
56599;SDS011;51832;48.152;11.530;2022-11-25T16:56:28;6.65;;;2.80;;
56599;SDS011;51832;48.152;11.530;2022-11-25T17:01:28;6.63;;;3.10;;
56599;SDS011;51832;48.152;11.530;2022-11-25T17:06:30;6.55;;;3.63;;
56599;SDS011;51832;48.152;11.530;2022-11-25T17:16:32;6.47;;;3.10;;
56599;SDS011;51832;48.152;11.530;2022-11-25T17:21:33;5.32;;;3.15;;
56599;SDS011;51832;48.152;11.530;2022-11-25T17:26:37;8.57;;;4.00;;
56599;SDS011;51832;48.152;11.530;2022-11-25T17:31:40;8.73;;;4.30;;
56599;SDS011;51832;48.152;11.530;2022-11-25T17:36:42;8.02;;;4.65;;
56599;SDS011;51832;48.152;11.530;2022-11-25T17:41:45;8.82;;;4.45;;
56599;SDS011;51832;48.152;11.530;2022-11-25T17:46:50;8.20;;;4.25;;
56599;SDS011;51832;48.152;11.530;2022-11-25T17:51:51;9.23;;;5.28;;
56599;SDS011;51832;48.152;11.530;2022-11-25T17:56:52;7.57;;;5.25;;
56599;SDS011;51832;48.152;11.530;2022-11-25T18:01:52;8.13;;;5.93;;
56599;SDS011;51832;48.152;11.530;2022-11-25T18:06:54;8.23;;;5.90;;
56599;SDS011;51832;48.152;11.530;2022-11-25T18:11:55;9.00;;;6.05;;
56599;SDS011;51832;48.152;11.530;2022-11-25T18:17:09;6.72;;;4.70;;
56599;SDS011;51832;48.152;11.530;2022-11-25T18:22:16;6.72;;;4.38;;
56599;SDS011;51832;48.152;11.530;2022-11-25T18:27:22;8.32;;;4.63;;
56599;SDS011;51832;48.152;11.530;2022-11-25T18:32:25;11.48;;;4.90;;
56599;SDS011;51832;48.152;11.530;2022-11-25T18:37:26;8.55;;;4.50;;
56599;SDS011;51832;48.152;11.530;2022-11-25T18:42:27;8.10;;;4.53;;
56599;SDS011;51832;48.152;11.530;2022-11-25T18:47:27;6.68;;;4.78;;
56599;SDS011;51832;48.152;11.530;2022-11-25T18:52:28;8.43;;;4.93;;
56599;SDS011;51832;48.152;11.530;2022-11-25T18:57:28;10.00;;;4.97;;
56599;SDS011;51832;48.152;11.530;2022-11-25T19:02:28;7.85;;;5.10;;
56599;SDS011;51832;48.152;11.530;2022-11-25T19:07:29;8.25;;;5.20;;
56599;SDS011;51832;48.152;11.530;2022-11-25T19:12:29;10.40;;;5.60;;
56599;SDS011;51832;48.152;11.530;2022-11-25T19:17:30;8.60;;;5.45;;
56599;SDS011;51832;48.152;11.530;2022-11-25T19:22:30;8.00;;;5.50;;
56599;SDS011;51832;48.152;11.530;2022-11-25T19:27:30;8.63;;;5.20;;
56599;SDS011;51832;48.152;11.530;2022-11-25T19:32:35;7.55;;;5.45;;
56599;SDS011;51832;48.152;11.530;2022-11-25T19:37:36;9.82;;;5.88;;
56599;SDS011;51832;48.152;11.530;2022-11-25T19:42:37;13.00;;;5.80;;
56599;SDS011;51832;48.152;11.530;2022-11-25T19:47:38;10.60;;;5.77;;
56599;SDS011;51832;48.152;11.530;2022-11-25T19:52:38;10.63;;;6.20;;
56599;SDS011;51832;48.152;11.530;2022-11-25T19:57:40;12.15;;;5.60;;
56599;SDS011;51832;48.152;11.530;2022-11-25T20:02:40;10.90;;;5.63;;
56599;SDS011;51832;48.152;11.530;2022-11-25T20:07:42;9.73;;;6.03;;
56599;SDS011;51832;48.152;11.530;2022-11-25T20:12:43;8.65;;;5.15;;
56599;SDS011;51832;48.152;11.530;2022-11-25T20:17:47;7.18;;;5.05;;
56599;SDS011;51832;48.152;11.530;2022-11-25T20:22:52;8.23;;;5.07;;
56599;SDS011;51832;48.152;11.530;2022-11-25T20:27:57;8.23;;;5.22;;
56599;SDS011;51832;48.152;11.530;2022-11-25T20:32:58;10.10;;;5.13;;
56599;SDS011;51832;48.152;11.530;2022-11-25T20:37:58;9.77;;;5.37;;
56599;SDS011;51832;48.152;11.530;2022-11-25T20:42:59;7.88;;;4.88;;
56599;SDS011;51832;48.152;11.530;2022-11-25T20:48:00;13.30;;;5.13;;
56599;SDS011;51832;48.152;11.530;2022-11-25T20:53:00;8.82;;;5.18;;
56599;SDS011;51832;48.152;11.530;2022-11-25T20:58:05;9.85;;;5.45;;
56599;SDS011;51832;48.152;11.530;2022-11-25T21:03:30;10.02;;;5.22;;
56599;SDS011;51832;48.152;11.530;2022-11-25T21:08:31;10.00;;;5.20;;
56599;SDS011;51832;48.152;11.530;2022-11-25T21:13:31;11.50;;;6.07;;
56599;SDS011;51832;48.152;11.530;2022-11-25T21:18:32;9.52;;;5.15;;
56599;SDS011;51832;48.152;11.530;2022-11-25T21:23:34;10.25;;;5.15;;
56599;SDS011;51832;48.152;11.530;2022-11-25T21:28:37;14.57;;;5.95;;
56599;SDS011;51832;48.152;11.530;2022-11-25T21:33:41;10.25;;;5.35;;
56599;SDS011;51832;48.152;11.530;2022-11-25T21:38:42;10.48;;;5.85;;
56599;SDS011;51832;48.152;11.530;2022-11-25T21:43:43;10.52;;;5.97;;
56599;SDS011;51832;48.152;11.530;2022-11-25T21:48:45;11.90;;;6.43;;
56599;SDS011;51832;48.152;11.530;2022-11-25T21:53:46;12.13;;;6.32;;
56599;SDS011;51832;48.152;11.530;2022-11-25T21:58:47;13.45;;;6.90;;
56599;SDS011;51832;48.152;11.530;2022-11-25T22:03:48;14.65;;;6.82;;
56599;SDS011;51832;48.152;11.530;2022-11-25T22:08:49;9.15;;;5.65;;
56599;SDS011;51832;48.152;11.530;2022-11-25T22:13:49;12.27;;;6.18;;
56599;SDS011;51832;48.152;11.530;2022-11-25T22:18:50;12.32;;;6.15;;
56599;SDS011;51832;48.152;11.530;2022-11-25T22:23:50;10.30;;;5.82;;
56599;SDS011;51832;48.152;11.530;2022-11-25T22:28:51;12.37;;;6.80;;
56599;SDS011;51832;48.152;11.530;2022-11-25T22:33:52;8.73;;;5.53;;
56599;SDS011;51832;48.152;11.530;2022-11-25T22:38:53;15.40;;;7.78;;
56599;SDS011;51832;48.152;11.530;2022-11-25T22:43:53;9.02;;;5.75;;
56599;SDS011;51832;48.152;11.530;2022-11-25T22:48:53;10.98;;;5.55;;
56599;SDS011;51832;48.152;11.530;2022-11-25T22:53:54;10.00;;;5.85;;
56599;SDS011;51832;48.152;11.530;2022-11-25T22:58:54;12.63;;;6.32;;
56599;SDS011;51832;48.152;11.530;2022-11-25T23:03:59;8.38;;;5.88;;
56599;SDS011;51832;48.152;11.530;2022-11-25T23:08:59;9.40;;;5.57;;
56599;SDS011;51832;48.152;11.530;2022-11-25T23:14:01;9.97;;;5.70;;
56599;SDS011;51832;48.152;11.530;2022-11-25T23:19:02;9.90;;;5.13;;
56599;SDS011;51832;48.152;11.530;2022-11-25T23:29:15;8.52;;;4.57;;
56599;SDS011;51832;48.152;11.530;2022-11-25T23:34:16;12.67;;;5.67;;
56599;SDS011;51832;48.152;11.530;2022-11-25T23:39:18;9.07;;;5.15;;
56599;SDS011;51832;48.152;11.530;2022-11-25T23:49:26;7.47;;;4.75;;
56599;SDS011;51832;48.152;11.530;2022-11-25T23:54:37;10.57;;;5.40;;
56599;SDS011;51832;48.152;11.530;2022-11-25T23:59:41;7.97;;;4.88;;
